Fulton County Airport Brown Field
KFTY : now visible

Airfield :











YOU CAN JOIN US ON...

 
LOGIN :

Register | Disclaimer

   EN    FR    IT 

 









Legend :    VFR   Marginal VFR   IFR   Intensive IFR   Very Intensive IFR
Visi :
Ceiling :
>= 8 km
>= 3000ft
5 to 8 km
1000 to 3000 ft
1500m to 5 km
500 to 1000 ft
800 to 1500m
200 to 500 ft
< 800m
< 200 ft
Symbols :   Thunderstorms  Fog  Heavy snow  Heavy precipitations  Wind > 20 kt






- Airport Elevation : 841 ft


KFTY - Fulton County Brown Field

CURRENT METAR :
  • 101853Z 22005KT 7SM -RA SCT016 OVC021 18/17 A2972 RMK AO2 RAB1758 SLP056 P0001 T01780167

EXPIRED METARs :
  • 101810Z 20008KT 8SM -RA SCT016 OVC021 18/16 A2974 RMK AO2 RAB1758 P0001 T01780161
  • 101753Z 18007KT 10SM BKN013 OVC019 18/16 A2973 RMK AO2 RAE17 SLP062 P0001 6//// T01780156 10178 20167 55026
  • 101653Z 17011G17KT 10SM -RA BKN011 OVC017 17/16 A2971 RMK AO2 SLP056 P0002 T01720156 $
  • 101553Z 14008G14KT 10SM -RA BKN013 BKN021 OVC070 17/16 A2974 RMK AO2 PRESFR SLP066 T01720161 PNO $

TAF KFTY
Valid from the 10 at 18:00 until the 11 at 18:00 UTC


101730Z 1018/1118 17012KT 4SM BR VCSH OVC015
FM102100 21009KT P6SM VCSH OVC027
FM102300 22007KT P6SM BKN018
FM111100 27004KT P6SM SCT015
FM111600 29007KT P6SM FEW250
KZTL FIR / North America



MET'MAP, your aeronautical weather chart ! - Copyright ORBIFLY December 2007 - Disclaimer

ORBIFLY MET'MAP TEAM :

Programming & Development : Alexandra Zaïnal
Concept & original design : Baudouin d'Aumeries
Assistance for programming : Marc-Olivier Méhu
Technical & hardware support : Manuel Goepfert

Contact : metmap@orbifly.com




SOURCES & CREDITS :

   NOAA       Earth
Advisory